Time;durP1;ratioP1;P1;durP2;ratioP2;P2;SDS_P1;SDS_P2;PMS_P1;PMS_P2;Temp;Humidity;BMP_temperature;BMP_pressure;BME280_temperature;BME280_humidity;BME280_pressure;Samples;Min_cycle;Max_cycle;Signal;HPM_P1;HPM_P2
2021/06/29 00:02:24;;;;;;;4.05;1.70;;;14.40;99.90;;;;;;5054805;28;20013;-81
2021/06/29 00:04:50;;;;;;;3.67;1.60;;;14.50;99.90;;;;;;5064289;28;20032;-80
2021/06/29 00:07:16;;;;;;;2.05;1.60;;;14.40;99.90;;;;;;5054640;28;20028;-81
2021/06/29 00:09:41;;;;;;;5.05;1.52;;;14.40;99.90;;;;;;5065274;28;20029;-81
2021/06/29 00:12:08;;;;;;;6.00;1.80;;;14.40;99.90;;;;;;5054252;28;20025;-81
2021/06/29 00:14:34;;;;;;;3.45;1.67;;;14.40;99.90;;;;;;5066278;28;20024;-81
2021/06/29 00:17:00;;;;;;;6.63;1.90;;;14.40;99.90;;;;;;5056312;28;20032;-81
2021/06/29 00:19:26;;;;;;;8.45;1.80;;;14.40;99.90;;;;;;5066260;28;20017;-81
2021/06/29 00:21:51;;;;;;;3.95;1.50;;;14.40;99.90;;;;;;5058909;28;20524;-81
2021/06/29 00:24:17;;;;;;;3.75;1.58;;;14.40;99.90;;;;;;5068412;28;20021;-81
2021/06/29 00:26:43;;;;;;;6.25;1.90;;;14.50;99.90;;;;;;5063700;28;20437;-81
2021/06/29 00:29:09;;;;;;;6.75;2.30;;;14.50;99.90;;;;;;5069151;28;20491;-81
2021/06/29 00:31:35;;;;;;;7.53;2.67;;;14.50;99.90;;;;;;5065486;28;20024;-81
2021/06/29 00:34:02;;;;;;;6.07;2.30;;;14.50;99.90;;;;;;5069001;28;20036;-81
2021/06/29 00:36:27;;;;;;;4.85;1.90;;;14.40;99.90;;;;;;5058652;28;20035;-81
2021/06/29 00:38:53;;;;;;;6.00;1.83;;;14.50;99.90;;;;;;5068398;28;20024;-81
2021/06/29 00:41:19;;;;;;;5.53;1.60;;;14.50;99.90;;;;;;5055055;28;20455;-81
2021/06/29 00:43:49;;;;;;;8.25;1.83;;;14.40;99.90;;;;;;5063741;28;20020;-81
2021/06/29 00:46:16;;;;;;;7.85;1.83;;;14.40;99.90;;;;;;5056124;28;20043;-81
2021/06/29 00:48:42;;;;;;;4.32;1.90;;;14.40;99.90;;;;;;5065335;28;20024;-81
2021/06/29 00:51:11;;;;;;;6.55;2.08;;;14.40;99.90;;;;;;5059095;28;20486;-81
2021/06/29 00:53:36;;;;;;;5.53;2.30;;;14.40;99.90;;;;;;5064978;28;20029;-81
2021/06/29 00:56:02;;;;;;;5.90;2.08;;;14.50;99.90;;;;;;5060848;28;20538;-81
2021/06/29 00:58:28;;;;;;;7.07;2.58;;;14.50;99.90;;;;;;5070586;28;20048;-81
2021/06/29 01:00:54;;;;;;;7.10;2.50;;;14.50;99.90;;;;;;5078875;28;21950;-81
2021/06/29 01:03:19;;;;;;;6.28;2.42;;;14.50;99.90;;;;;;5088457;28;20488;-81
2021/06/29 01:05:45;;;;;;;8.32;2.47;;;14.60;99.90;;;;;;5092231;28;20031;-81
2021/06/29 01:08:11;;;;;;;5.25;2.30;;;14.50;99.90;;;;;;5091676;28;20036;-81
2021/06/29 01:10:37;;;;;;;4.15;2.00;;;14.50;99.90;;;;;;5085202;28;20016;-81
2021/06/29 01:13:04;;;;;;;5.72;2.03;;;14.60;99.90;;;;;;5081304;28;20039;-81
2021/06/29 01:15:30;;;;;;;6.30;2.08;;;14.60;99.90;;;;;;5090959;28;20024;-81
2021/06/29 01:17:57;;;;;;;4.85;1.95;;;14.60;99.90;;;;;;5078938;28;20063;-81
2021/06/29 01:20:27;;;;;;;4.82;1.95;;;14.60;99.90;;;;;;5082727;28;20020;-81
2021/06/29 01:22:56;;;;;;;5.82;2.03;;;14.60;99.90;;;;;;5074371;28;20028;-81
2021/06/29 01:25:24;;;;;;;8.40;2.08;;;14.60;99.90;;;;;;5083338;28;20012;-81
2021/06/29 01:32:53;;;;;;;2.85;1.90;;;14.50;99.90;;;;;;5085289;28;20055;-81
2021/06/29 01:35:19;;;;;;;8.32;2.72;;;14.50;99.90;;;;;;5083926;28;20074;-82
2021/06/29 01:37:45;;;;;;;4.38;1.98;;;14.50;99.90;;;;;;5077925;28;20059;-81
2021/06/29 01:42:37;;;;;;;9.98;3.10;;;14.50;99.90;;;;;;5081111;28;20020;-81
2021/06/29 01:45:04;;;;;;;5.50;2.65;;;14.50;99.90;;;;;;5082424;28;20020;-80
2021/06/29 01:50:25;;;;;;;5.00;2.30;;;14.50;99.90;;;;;;5082240;28;20028;-81
2021/06/29 01:52:57;;;;;;;7.22;2.05;;;14.60;99.90;;;;;;5086172;28;20043;-81
2021/06/29 01:55:22;;;;;;;7.13;1.90;;;14.60;99.90;;;;;;5077942;28;20035;-81
2021/06/29 01:57:49;;;;;;;11.43;2.00;;;14.70;99.90;;;;;;5067459;28;20516;-82
2021/06/29 02:00:15;;;;;;;6.60;1.63;;;14.70;99.90;;;;;;5045298;28;20401;-82
2021/06/29 02:02:41;;;;;;;4.75;0.98;;;14.70;99.90;;;;;;5056537;28;20025;-81
2021/06/29 02:05:08;;;;;;;3.03;1.08;;;14.70;99.90;;;;;;5063940;28;20376;-82
2021/06/29 02:07:33;;;;;;;12.05;1.58;;;14.70;99.90;;;;;;5056782;28;20020;-82
2021/06/29 02:09:59;;;;;;;6.50;1.20;;;14.70;99.90;;;;;;5048805;28;20443;-82
2021/06/29 02:12:25;;;;;;;9.20;1.25;;;14.70;99.90;;;;;;5059465;28;20113;-82
2021/06/29 02:14:50;;;;;;;6.55;1.30;;;14.70;99.90;;;;;;5069251;28;20036;-82
2021/06/29 02:17:16;;;;;;;8.85;1.20;;;14.70;99.90;;;;;;5052803;28;20021;-81
2021/06/29 02:19:42;;;;;;;7.60;1.30;;;14.70;99.90;;;;;;5044970;28;20511;-82
2021/06/29 02:22:08;;;;;;;3.45;0.82;;;14.70;99.90;;;;;;5056119;28;20089;-82
2021/06/29 02:24:34;;;;;;;5.03;1.02;;;14.70;99.90;;;;;;5063498;28;20388;-82
2021/06/29 02:27:01;;;;;;;8.57;1.20;;;14.80;99.90;;;;;;5067407;28;20029;-81
2021/06/29 02:29:26;;;;;;;9.25;2.05;;;14.80;99.90;;;;;;5063596;28;20024;-82
2021/06/29 02:31:52;;;;;;;8.48;1.25;;;14.80;99.90;;;;;;5056652;28;20025;-90
2021/06/29 02:34:17;;;;;;;9.10;1.48;;;14.80;99.90;;;;;;5064116;28;20124;-81
2021/06/29 02:36:43;;;;;;;7.78;1.40;;;14.80;99.90;;;;;;5057852;28;20033;-81
2021/06/29 02:39:09;;;;;;;9.50;1.38;;;14.80;99.90;;;;;;5064299;28;20021;-81
2021/06/29 02:41:35;;;;;;;10.93;1.52;;;14.80;99.90;;;;;;5059871;28;20028;-81
2021/06/29 02:44:00;;;;;;;9.60;1.20;;;14.70;99.90;;;;;;5064024;28;20091;-81
2021/06/29 02:46:26;;;;;;;6.35;1.02;;;14.70;99.90;;;;;;5060321;28;20381;-81
2021/06/29 02:48:56;;;;;;;8.02;1.17;;;14.60;99.90;;;;;;5064030;28;20016;-81
2021/06/29 02:51:22;;;;;;;9.32;1.25;;;14.50;99.90;;;;;;5061913;28;20090;-81
2021/06/29 02:53:48;;;;;;;7.45;1.30;;;14.50;99.90;;;;;;5064533;28;20115;-81
2021/06/29 02:58:58;;;;;;;9.23;2.17;;;14.40;99.90;;;;;;5064615;28;20055;-81
2021/06/29 03:01:24;;;;;;;6.53;1.38;;;14.40;99.90;;;;;;5051348;28;20021;-81
2021/06/29 03:03:50;;;;;;;7.70;1.40;;;14.40;99.90;;;;;;5068654;28;20036;-81
2021/06/29 03:06:16;;;;;;;5.75;2.03;;;14.30;99.90;;;;;;5055697;28;20121;-81
2021/06/29 03:08:42;;;;;;;9.38;1.38;;;14.30;99.90;;;;;;5065969;28;20118;-81
2021/06/29 03:11:07;;;;;;;10.35;1.40;;;14.30;99.90;;;;;;5054930;28;20087;-81
2021/06/29 03:13:33;;;;;;;5.53;1.30;;;14.20;99.90;;;;;;5060015;28;20040;-81
2021/06/29 03:15:59;;;;;;;8.48;2.03;;;14.20;99.90;;;;;;5056972;28;20021;-81
2021/06/29 03:18:24;;;;;;;9.50;1.60;;;14.20;99.90;;;;;;5057750;28;20103;-81
2021/06/29 03:20:50;;;;;;;4.47;1.40;;;14.20;99.90;;;;;;5053261;28;20053;-81
2021/06/29 03:23:16;;;;;;;4.80;1.60;;;14.20;99.90;;;;;;5065053;28;20534;-81
2021/06/29 03:25:42;;;;;;;4.82;1.90;;;14.30;99.90;;;;;;5061051;28;20025;-81
2021/06/29 03:28:08;;;;;;;4.15;1.33;;;14.30;99.90;;;;;;5057873;28;20074;-81
2021/06/29 03:30:34;;;;;;;5.25;1.65;;;14.30;99.90;;;;;;5054844;28;20070;-81
2021/06/29 03:33:00;;;;;;;8.57;2.03;;;14.40;99.90;;;;;;5061990;28;20115;-81
2021/06/29 03:35:25;;;;;;;8.20;2.28;;;14.40;99.90;;;;;;5056842;28;20494;-81
2021/06/29 03:37:52;;;;;;;5.45;1.85;;;14.40;99.90;;;;;;5059966;28;20500;-81
2021/06/29 03:40:17;;;;;;;6.40;1.75;;;14.50;99.90;;;;;;5059610;28;20044;-81
2021/06/29 03:42:43;;;;;;;3.40;2.05;;;14.50;99.90;;;;;;5058121;28;20404;-81
2021/06/29 03:45:09;;;;;;;4.55;1.85;;;14.50;99.90;;;;;;5062211;28;20387;-81
2021/06/29 03:47:35;;;;;;;5.50;2.47;;;14.60;99.90;;;;;;5055039;28;20614;-81
2021/06/29 03:50:01;;;;;;;3.63;1.90;;;14.60;99.90;;;;;;5060364;28;20110;-81
2021/06/29 03:52:28;;;;;;;7.15;2.30;;;14.60;99.90;;;;;;5052894;28;20032;-81
2021/06/29 03:54:53;;;;;;;4.03;2.00;;;14.60;99.90;;;;;;5066410;28;20040;-81
2021/06/29 03:57:19;;;;;;;4.90;2.00;;;14.60;99.90;;;;;;5053373;28;20045;-81
2021/06/29 03:59:45;;;;;;;5.32;2.17;;;14.60;99.90;;;;;;5055038;28;20242;-81
2021/06/29 04:02:11;;;;;;;5.32;2.08;;;14.60;99.90;;;;;;5067795;28;20122;-81
2021/06/29 04:04:36;;;;;;;5.88;2.10;;;14.60;99.90;;;;;;5064048;28;20020;-81
2021/06/29 04:07:04;;;;;;;9.77;2.20;;;14.60;99.90;;;;;;5058572;28;20028;-81
2021/06/29 04:09:30;;;;;;;4.47;2.22;;;14.60;99.90;;;;;;5065219;28;20035;-81
2021/06/29 04:11:55;;;;;;;7.18;2.40;;;14.70;99.90;;;;;;5058989;28;20020;-82
2021/06/29 04:14:21;;;;;;;4.40;2.25;;;14.60;99.90;;;;;;5065597;28;20033;-81
2021/06/29 04:16:47;;;;;;;4.47;2.10;;;14.70;99.90;;;;;;5058949;28;20033;-81
2021/06/29 04:19:13;;;;;;;5.15;2.25;;;14.70;99.90;;;;;;5066162;28;20095;-81
2021/06/29 04:21:39;;;;;;;5.93;3.38;;;14.70;99.90;;;;;;5060206;28;20055;-81
2021/06/29 04:24:05;;;;;;;3.33;2.30;;;14.70;99.90;;;;;;5065180;28;20044;-81
2021/06/29 04:26:32;;;;;;;5.78;2.60;;;14.80;99.90;;;;;;5062365;28;20116;-80
2021/06/29 04:28:58;;;;;;;3.25;2.40;;;14.80;99.90;;;;;;5066019;28;20090;-80
2021/06/29 04:31:24;;;;;;;5.75;2.40;;;14.80;99.90;;;;;;5062874;28;20477;-80
2021/06/29 04:33:50;;;;;;;6.70;2.40;;;14.80;99.90;;;;;;5067201;28;20457;-81
2021/06/29 04:36:15;;;;;;;6.50;2.65;;;14.90;99.90;;;;;;5065967;28;20071;-80
2021/06/29 04:38:41;;;;;;;6.00;2.60;;;14.90;99.90;;;;;;5066033;28;20377;-80
2021/06/29 04:41:07;;;;;;;8.02;3.10;;;14.90;99.90;;;;;;5065752;28;20017;-80
2021/06/29 04:43:35;;;;;;;5.00;2.75;;;15.00;99.90;;;;;;5062673;28;20091;-80
2021/06/29 04:46:01;;;;;;;6.10;2.40;;;15.00;99.90;;;;;;5069731;28;20012;-81
2021/06/29 04:48:26;;;;;;;3.45;2.53;;;15.00;99.90;;;;;;5062893;28;20033;-80
2021/06/29 04:50:52;;;;;;;3.15;2.20;;;15.00;99.90;;;;;;5065456;28;20036;-80
2021/06/29 04:53:18;;;;;;;7.60;2.28;;;15.10;99.90;;;;;;5061777;28;20119;-80
2021/06/29 04:55:44;;;;;;;4.97;2.35;;;15.10;99.90;;;;;;5057680;28;20108;-80
2021/06/29 04:58:09;;;;;;;5.15;2.33;;;15.10;99.90;;;;;;5057601;28;20044;-80
2021/06/29 05:00:37;;;;;;;5.82;2.67;;;15.10;99.90;;;;;;5072111;28;20392;-80
2021/06/29 05:03:04;;;;;;;6.53;2.72;;;15.20;99.90;;;;;;5071367;28;20021;-81
2021/06/29 05:05:30;;;;;;;4.43;2.20;;;15.20;99.90;;;;;;5066506;28;20141;-80
2021/06/29 05:07:55;;;;;;;7.35;2.92;;;15.20;99.90;;;;;;5058736;28;20020;-80
2021/06/29 05:10:21;;;;;;;4.32;2.72;;;15.20;99.90;;;;;;5068332;28;20036;-80
2021/06/29 05:12:48;;;;;;;5.68;2.50;;;15.30;99.90;;;;;;5058644;28;20041;-80
2021/06/29 05:15:14;;;;;;;5.45;2.50;;;15.30;99.90;;;;;;5069731;28;20058;-80
2021/06/29 05:17:40;;;;;;;7.15;2.80;;;15.40;99.90;;;;;;5057065;28;20049;-80
2021/06/29 05:20:07;;;;;;;5.95;2.40;;;15.50;99.90;;;;;;5071731;28;20442;-80
2021/06/29 05:22:32;;;;;;;6.72;3.15;;;15.50;99.90;;;;;;5051788;28;20047;-80
2021/06/29 05:25:00;;;;;;;7.70;2.92;;;15.50;99.90;;;;;;5071793;28;20064;-80
2021/06/29 05:27:26;;;;;;;5.28;2.30;;;15.50;99.90;;;;;;5053293;28;20477;-79
2021/06/29 05:29:51;;;;;;;6.28;2.90;;;15.60;99.90;;;;;;5063657;28;20024;-79
2021/06/29 05:32:18;;;;;;;3.15;2.60;;;15.70;99.90;;;;;;5064982;28;20025;-80
2021/06/29 05:34:44;;;;;;;5.97;2.70;;;15.70;99.90;;;;;;5067097;28;20515;-81
2021/06/29 05:37:09;;;;;;;3.95;2.60;;;15.80;99.90;;;;;;5052368;28;20048;-81
2021/06/29 05:39:35;;;;;;;9.30;2.95;;;15.80;99.90;;;;;;5068397;28;20071;-81
2021/06/29 05:42:01;;;;;;;9.40;3.03;;;15.80;99.90;;;;;;5058192;28;20119;-81
2021/06/29 05:44:26;;;;;;;6.07;2.65;;;15.90;99.90;;;;;;5065051;28;20026;-81
2021/06/29 05:46:53;;;;;;;4.82;2.70;;;15.90;99.90;;;;;;5055861;28;20086;-81
2021/06/29 05:49:20;;;;;;;3.05;2.53;;;15.90;99.90;;;;;;5069969;28;20516;-81
2021/06/29 05:51:46;;;;;;;5.13;2.80;;;15.90;99.90;;;;;;5070468;28;20031;-81
2021/06/29 05:54:15;;;;;;;9.60;3.10;;;16.00;99.90;;;;;;5068919;28;20044;-81
2021/06/29 05:56:43;;;;;;;7.00;3.08;;;16.00;99.90;;;;;;5068849;28;20496;-82
2021/06/29 05:59:10;;;;;;;3.75;2.65;;;16.00;99.90;;;;;;5047741;28;20122;-81
2021/06/29 06:01:36;;;;;;;6.97;3.08;;;16.10;99.90;;;;;;5052619;28;20021;-81
2021/06/29 06:04:01;;;;;;;7.05;2.97;;;16.20;99.90;;;;;;5057642;28;20025;-83
2021/06/29 06:06:27;;;;;;;5.03;3.10;;;16.20;99.90;;;;;;5053511;28;20013;-81
2021/06/29 06:08:53;;;;;;;6.20;2.55;;;16.30;99.90;;;;;;5065039;28;20467;-81
2021/06/29 06:11:18;;;;;;;9.77;3.80;;;16.30;99.90;;;;;;5053256;28;20040;-81
2021/06/29 06:13:44;;;;;;;6.50;3.75;;;16.30;99.90;;;;;;5065823;28;20047;-81
2021/06/29 06:16:10;;;;;;;9.32;3.53;;;16.20;99.90;;;;;;5054854;28;20021;-81
2021/06/29 06:18:36;;;;;;;6.55;3.42;;;16.10;99.90;;;;;;5039619;28;20145;-81
2021/06/29 06:21:02;;;;;;;8.43;2.50;;;16.20;99.90;;;;;;5070299;28;20370;-81
2021/06/29 06:23:28;;;;;;;4.45;2.53;;;16.10;99.90;;;;;;5060076;28;20056;-81
2021/06/29 06:25:53;;;;;;;4.55;3.33;;;16.20;99.90;;;;;;5041028;28;20547;-81
2021/06/29 06:28:19;;;;;;;3.95;2.80;;;16.30;99.90;;;;;;5049639;28;20067;-81
2021/06/29 06:30:45;;;;;;;5.85;3.10;;;16.30;99.90;;;;;;5052388;28;20036;-81
2021/06/29 06:33:11;;;;;;;4.68;3.03;;;16.40;99.90;;;;;;5051424;28;20130;-81
2021/06/29 06:35:37;;;;;;;7.30;3.00;;;16.40;99.90;;;;;;5063382;28;20017;-81
2021/06/29 06:38:03;;;;;;;5.55;3.28;;;16.40;99.90;;;;;;5058209;28;20642;-82
2021/06/29 06:40:28;;;;;;;6.30;3.40;;;16.50;99.90;;;;;;5056937;28;20023;-81
2021/06/29 06:42:54;;;;;;;6.10;3.00;;;16.50;99.90;;;;;;5061113;28;20096;-81
2021/06/29 06:45:23;;;;;;;7.65;2.90;;;16.60;99.90;;;;;;5059577;28;20104;-81
2021/06/29 06:47:49;;;;;;;5.30;2.67;;;16.70;99.90;;;;;;5053390;28;20511;-81
2021/06/29 06:50:15;;;;;;;3.20;2.03;;;16.60;99.90;;;;;;5065909;28;20055;-81
2021/06/29 06:52:41;;;;;;;8.98;2.92;;;16.50;99.90;;;;;;5057567;28;20076;-80
2021/06/29 06:55:07;;;;;;;4.57;2.35;;;16.60;99.90;;;;;;5055198;28;20025;-80
2021/06/29 06:57:34;;;;;;;2.40;1.50;;;16.60;99.90;;;;;;5048788;28;20074;-80
2021/06/29 06:59:59;;;;;;;7.60;1.60;;;16.60;99.90;;;;;;5077789;28;20501;-80
2021/06/29 07:02:25;;;;;;;5.25;1.23;;;16.60;99.90;;;;;;5079635;28;20039;-80
2021/06/29 07:04:51;;;;;;;7.13;1.75;;;16.70;99.90;;;;;;5082175;28;20039;-80
2021/06/29 07:07:17;;;;;;;2.30;1.10;;;16.70;99.90;;;;;;5087072;28;20028;-81
2021/06/29 07:09:43;;;;;;;3.25;1.10;;;16.70;99.90;;;;;;5085255;28;20027;-80
2021/06/29 07:12:09;;;;;;;4.28;0.98;;;16.70;99.90;;;;;;5078010;28;20473;-80
2021/06/29 07:14:35;;;;;;;2.95;0.90;;;16.60;99.90;;;;;;5085293;28;20112;-80
2021/06/29 07:17:00;;;;;;;3.75;0.90;;;16.60;99.90;;;;;;5079362;28;20028;-80
2021/06/29 07:19:26;;;;;;;3.33;1.42;;;16.60;99.90;;;;;;5087366;28;20499;-81
2021/06/29 07:21:52;;;;;;;5.20;1.25;;;16.70;99.90;;;;;;5080772;28;20027;-80
2021/06/29 07:24:17;;;;;;;9.60;1.92;;;16.80;99.90;;;;;;5083156;28;20099;-79
2021/06/29 07:26:43;;;;;;;4.43;1.48;;;16.70;99.90;;;;;;5069753;28;20024;-75
2021/06/29 07:29:09;;;;;;;4.32;1.60;;;16.80;99.90;;;;;;5083055;28;20063;-74
2021/06/29 07:31:35;;;;;;;6.28;2.20;;;16.80;99.90;;;;;;5071413;28;20070;-75
2021/06/29 07:34:01;;;;;;;6.43;1.38;;;17.00;99.90;;;;;;5086679;28;20036;-75
2021/06/29 07:36:26;;;;;;;8.23;1.23;;;17.00;99.90;;;;;;5077144;28;20027;-75
2021/06/29 07:38:53;;;;;;;4.25;0.98;;;17.20;99.90;;;;;;5086791;28;20031;-75
2021/06/29 07:41:19;;;;;;;2.70;0.80;;;17.40;99.90;;;;;;5078771;28;20024;-75
2021/06/29 07:43:45;;;;;;;3.28;0.80;;;17.70;99.90;;;;;;5086142;28;20044;-75
2021/06/29 07:46:11;;;;;;;3.28;0.70;;;17.80;99.90;;;;;;5081074;28;20020;-76
2021/06/29 07:48:37;;;;;;;4.40;0.75;;;17.80;99.90;;;;;;5080975;28;20027;-75
2021/06/29 07:51:05;;;;;;;2.78;0.70;;;17.80;99.90;;;;;;5088573;28;20023;-74
2021/06/29 07:53:32;;;;;;;3.97;0.88;;;17.70;99.90;;;;;;5082367;28;20416;-75
2021/06/29 07:55:57;;;;;;;2.80;0.68;;;17.60;99.90;;;;;;5092828;28;20035;-76
2021/06/29 07:58:23;;;;;;;3.92;0.82;;;17.60;99.90;;;;;;5077416;28;20468;-76
2021/06/29 08:00:49;;;;;;;3.80;0.80;;;17.80;99.90;;;;;;5066601;28;20401;-75
2021/06/29 08:03:15;;;;;;;6.15;0.70;;;17.60;99.90;;;;;;5062374;28;20035;-75
2021/06/29 08:05:41;;;;;;;6.88;0.60;;;17.60;99.90;;;;;;5069713;28;20024;-76
2021/06/29 08:08:08;;;;;;;2.30;0.63;;;17.50;99.90;;;;;;5059008;28;20158;-76
2021/06/29 08:10:36;;;;;;;2.67;0.90;;;17.40;99.90;;;;;;5072866;28;20023;-76
2021/06/29 08:13:03;;;;;;;2.40;1.00;;;17.40;99.90;;;;;;5059512;28;20400;-76
2021/06/29 08:15:29;;;;;;;4.05;0.85;;;17.60;99.90;;;;;;5072379;28;20035;-76
2021/06/29 08:17:55;;;;;;;2.40;0.50;;;17.60;99.90;;;;;;5061186;28;20028;-76
2021/06/29 08:20:20;;;;;;;1.42;0.65;;;17.60;99.90;;;;;;5045104;28;20307;-74
2021/06/29 08:22:47;;;;;;;3.03;0.70;;;17.60;99.90;;;;;;5067124;28;20025;-74
2021/06/29 08:25:13;;;;;;;1.38;0.55;;;17.60;99.90;;;;;;5072393;28;20017;-74
2021/06/29 08:27:39;;;;;;;2.30;0.50;;;17.60;99.90;;;;;;5045890;28;20020;-74
2021/06/29 08:30:07;;;;;;;2.78;0.90;;;17.60;99.90;;;;;;5071898;28;20013;-74
2021/06/29 08:32:33;;;;;;;4.68;0.70;;;17.70;99.90;;;;;;5064387;28;20025;-75
2021/06/29 08:34:59;;;;;;;1.38;0.70;;;17.70;99.90;;;;;;5065936;28;20051;-74
2021/06/29 08:37:25;;;;;;;1.65;0.70;;;17.60;99.90;;;;;;5071251;28;20397;-74
2021/06/29 08:39:52;;;;;;;3.28;0.80;;;17.40;99.90;;;;;;5062200;28;20166;-74
2021/06/29 08:42:19;;;;;;;3.63;1.00;;;17.30;99.90;;;;;;5054382;28;20432;-73
2021/06/29 08:44:45;;;;;;;5.63;1.17;;;17.10;99.90;;;;;;5065404;28;20029;-74
2021/06/29 08:47:10;;;;;;;5.68;1.27;;;16.90;99.90;;;;;;5061890;28;20024;-73
2021/06/29 08:49:37;;;;;;;5.78;1.20;;;16.60;99.90;;;;;;5066543;28;20063;-73
2021/06/29 08:52:04;;;;;;;3.90;1.33;;;16.40;99.90;;;;;;5063720;28;20025;-73
2021/06/29 08:54:30;;;;;;;4.53;1.20;;;16.30;99.90;;;;;;5071019;28;20032;-74
2021/06/29 08:56:56;;;;;;;4.60;1.40;;;16.30;99.90;;;;;;5065507;28;20045;-74
2021/06/29 08:59:22;;;;;;;8.90;1.63;;;16.20;99.90;;;;;;5070453;28;20050;-74
2021/06/29 09:01:47;;;;;;;7.38;1.23;;;16.10;99.90;;;;;;5067430;28;20063;-74
2021/06/29 09:04:13;;;;;;;11.57;1.70;;;16.10;99.90;;;;;;5068989;28;20024;-73
2021/06/29 09:06:43;;;;;;;7.90;1.48;;;16.10;99.90;;;;;;5069315;28;20028;-75
2021/06/29 09:09:45;;;;;;;15.27;2.40;;;16.10;99.90;;;;;;5059743;28;20044;-74
2021/06/29 09:12:11;;;;;;;4.93;1.10;;;16.00;99.90;;;;;;5008872;28;20041;-74
2021/06/29 09:14:39;;;;;;;4.88;1.35;;;16.10;99.90;;;;;;5069140;28;20063;-73
2021/06/29 09:17:18;;;;;;;3.97;0.95;;;16.20;99.90;;;;;;5061242;28;20457;-73
2021/06/29 09:19:45;;;;;;;3.80;1.48;;;16.40;99.90;;;;;;5069371;28;20146;-72
2021/06/29 09:22:26;;;;;;;2.20;0.95;;;16.50;99.90;;;;;;5052126;28;20489;-72
2021/06/29 09:24:51;;;;;;;5.10;0.93;;;16.80;99.90;;;;;;5068064;28;20035;-72
2021/06/29 09:27:44;;;;;;;3.42;0.80;;;17.10;99.90;;;;;;5059091;28;20013;-72
2021/06/29 09:30:33;;;;;;;2.55;1.00;;;17.50;99.90;;;;;;5066835;28;20603;-73
2021/06/29 09:33:07;;;;;;;5.78;1.08;;;17.90;99.90;;;;;;5058699;28;20125;-73
2021/06/29 09:35:35;;;;;;;3.30;0.85;;;18.00;99.90;;;;;;5062440;28;20111;-74
2021/06/29 09:38:01;;;;;;;1.95;0.73;;;18.00;99.90;;;;;;5060517;28;20023;-74
2021/06/29 09:40:29;;;;;;;4.35;0.80;;;18.00;99.90;;;;;;5061533;28;20025;-74
2021/06/29 09:43:16;;;;;;;3.38;0.90;;;18.00;99.90;;;;;;5057684;28;20029;-74
2021/06/29 09:45:46;;;;;;;3.78;0.80;;;17.70;99.90;;;;;;5063076;28;20077;-74
2021/06/29 09:48:14;;;;;;;4.97;1.05;;;17.70;99.90;;;;;;5054070;28;20028;-73
2021/06/29 09:50:45;;;;;;;4.68;0.90;;;17.80;99.90;;;;;;5066310;28;20020;-73
2021/06/29 09:53:20;;;;;;;4.05;1.13;;;17.90;99.90;;;;;;5059450;28;20037;-73
2021/06/29 09:55:48;;;;;;;3.88;1.00;;;17.90;99.90;;;;;;5070142;28;20031;-73
2021/06/29 09:58:15;;;;;;;3.92;1.15;;;17.70;99.90;;;;;;5068597;28;20044;-74
2021/06/29 10:00:50;;;;;;;4.05;1.40;;;17.50;99.90;;;;;;5070736;28;20089;-74
2021/06/29 10:03:21;;;;;;;4.63;1.15;;;17.70;99.90;;;;;;5060619;28;20023;-73
2021/06/29 10:05:47;;;;;;;5.07;1.10;;;18.00;99.90;;;;;;5070021;28;20024;-73
2021/06/29 10:08:36;;;;;;;4.82;1.30;;;18.10;99.90;;;;;;5069555;28;20112;-74
2021/06/29 10:11:08;;;;;;;4.85;1.33;;;18.20;99.90;;;;;;5047287;28;20037;-74
2021/06/29 10:13:36;;;;;;;5.50;1.50;;;18.20;99.90;;;;;;5069116;28;20020;-74
2021/06/29 10:16:04;;;;;;;6.53;1.02;;;18.10;99.90;;;;;;5061004;28;20424;-73
2021/06/29 10:18:32;;;;;;;7.47;1.40;;;18.20;99.90;;;;;;5056681;28;20025;-73
2021/06/29 10:21:01;;;;;;;6.13;1.30;;;18.20;99.90;;;;;;5066310;28;20024;-73
2021/06/29 10:23:27;;;;;;;6.50;1.38;;;18.20;99.90;;;;;;5058319;28;20024;-73
2021/06/29 10:25:53;;;;;;;6.05;1.40;;;18.30;99.90;;;;;;5040976;28;20485;-73
2021/06/29 10:28:19;;;;;;;5.72;1.08;;;18.40;99.90;;;;;;5059774;28;20028;-73
2021/06/29 10:30:46;;;;;;;8.15;1.48;;;18.30;99.90;;;;;;5064466;28;20039;-73
2021/06/29 10:33:12;;;;;;;6.40;1.27;;;18.20;99.90;;;;;;5058727;28;20036;-73
2021/06/29 10:35:41;;;;;;;4.72;1.27;;;18.10;99.90;;;;;;5067601;28;20025;-73
2021/06/29 10:38:08;;;;;;;7.38;1.55;;;18.20;99.90;;;;;;5058046;28;20025;-73
2021/06/29 10:40:35;;;;;;;6.13;1.13;;;18.30;99.90;;;;;;5068492;28;20016;-73
2021/06/29 10:43:01;;;;;;;5.18;1.42;;;18.40;99.90;;;;;;5056262;28;20036;-74
2021/06/29 10:45:39;;;;;;;6.60;1.55;;;18.40;99.90;;;;;;5069625;28;20013;-74
2021/06/29 10:48:26;;;;;;;8.20;1.63;;;18.40;99.90;;;;;;5052073;28;20055;-73
2021/06/29 10:50:54;;;;;;;6.93;1.55;;;18.40;99.90;;;;;;5049987;28;20021;-72
2021/06/29 10:53:46;;;;;;;6.97;1.65;;;18.50;99.90;;;;;;5058766;28;20048;-72
2021/06/29 10:56:17;;;;;;;5.03;0.95;;;18.50;99.90;;;;;;5057906;28;20021;-72
2021/06/29 10:58:43;;;;;;;5.53;1.05;;;18.60;99.90;;;;;;5060349;28;20451;-72
2021/06/29 11:01:30;;;;;;;6.70;1.42;;;18.70;99.90;;;;;;5065117;28;20017;-72
2021/06/29 11:03:59;;;;;;;5.97;1.25;;;18.60;99.90;;;;;;5064079;28;20158;-72
2021/06/29 11:06:31;;;;;;;4.50;1.00;;;18.70;99.90;;;;;;5063760;28;20096;-72
2021/06/29 11:08:59;;;;;;;8.82;1.60;;;18.80;99.90;;;;;;5064502;28;20240;-72
2021/06/29 11:11:29;;;;;;;5.10;1.27;;;18.80;99.90;;;;;;5051931;28;20022;-74
2021/06/29 11:13:57;;;;;;;5.35;1.10;;;19.00;99.90;;;;;;5046261;28;20490;-73
2021/06/29 11:16:58;;;;;;;6.47;1.10;;;19.10;99.90;;;;;;5037229;28;20043;-72
2021/06/29 11:20:03;;;;;;;7.10;1.02;;;18.90;99.90;;;;;;5056002;28;20558;-73
2021/06/29 11:22:51;;;;;;;5.65;1.27;;;18.60;99.90;;;;;;5031106;28;20053;-72
2021/06/29 11:25:39;;;;;;;7.22;1.08;;;18.60;99.90;;;;;;5064903;28;20020;-72
2021/06/29 11:28:11;;;;;;;6.03;1.10;;;18.70;99.90;;;;;;5057028;28;20095;-72
2021/06/29 11:30:55;;;;;;;6.90;1.52;;;18.80;99.90;;;;;;5058269;28;20037;-73
2021/06/29 11:33:30;;;;;;;6.20;1.38;;;18.90;99.90;;;;;;5068641;28;20041;-72
2021/06/29 11:35:56;;;;;;;3.05;0.77;;;18.80;99.90;;;;;;5068818;28;20385;-72
2021/06/29 11:38:39;;;;;;;5.60;0.70;;;18.80;99.90;;;;;;5060795;28;20099;-72
2021/06/29 11:41:24;;;;;;;3.95;0.80;;;18.70;99.90;;;;;;5069294;28;20100;-72
2021/06/29 11:43:50;;;;;;;4.65;1.00;;;18.70;99.90;;;;;;5062964;28;20480;-72
2021/06/29 11:47:06;;;;;;;5.93;1.25;;;18.70;99.90;;;;;;5069055;28;20032;-72
2021/06/29 11:49:47;;;;;;;5.60;1.40;;;18.80;99.90;;;;;;5039429;28;20033;-72
2021/06/29 11:52:17;;;;;;;6.43;1.08;;;18.90;99.90;;;;;;5051189;28;20028;-72
2021/06/29 11:55:01;;;;;;;3.72;0.82;;;18.80;99.90;;;;;;5065083;28;20037;-72
2021/06/29 11:57:30;;;;;;;2.80;0.60;;;19.00;99.90;;;;;;5055754;28;20278;-72
2021/06/29 12:00:04;;;;;;;3.63;0.80;;;19.10;99.90;;;;;;5055258;28;20139;-72
2021/06/29 12:02:31;;;;;;;4.57;1.13;;;19.40;99.90;;;;;;5062090;28;20490;-72
2021/06/29 12:05:06;;;;;;;2.65;0.82;;;19.50;99.90;;;;;;5059558;28;20024;-72
2021/06/29 12:07:39;;;;;;;3.13;1.17;;;19.40;99.90;;;;;;5052041;28;20024;-72
2021/06/29 12:10:21;;;;;;;3.50;1.05;;;19.50;99.90;;;;;;5064569;28;20032;-70
2021/06/29 12:12:52;;;;;;;4.07;0.88;;;19.30;99.90;;;;;;5057151;28;20099;-71
2021/06/29 12:15:25;;;;;;;5.53;1.02;;;19.40;99.90;;;;;;5060995;28;20506;-71
2021/06/29 12:18:03;;;;;;;3.22;0.77;;;19.50;99.90;;;;;;5057767;28;20016;-72
2021/06/29 12:20:59;;;;;;;8.20;1.10;;;19.50;99.90;;;;;;5065145;28;20491;-72
2021/06/29 12:23:30;;;;;;;7.40;1.20;;;19.40;99.90;;;;;;5037619;28;20033;-72
2021/06/29 12:26:00;;;;;;;4.85;0.73;;;19.60;99.90;;;;;;5063638;28;20049;-72
2021/06/29 12:28:29;;;;;;;6.68;1.05;;;19.90;99.90;;;;;;5063228;28;20032;-72
2021/06/29 12:31:08;;;;;;;5.18;1.05;;;20.00;99.90;;;;;;5065424;28;20021;-72
2021/06/29 12:33:37;;;;;;;4.32;0.80;;;20.10;99.90;;;;;;5063410;28;20024;-72
2021/06/29 12:36:07;;;;;;;4.13;0.68;;;20.30;99.90;;;;;;5065930;28;20184;-72
2021/06/29 12:38:35;;;;;;;2.50;0.85;;;20.30;99.90;;;;;;5063251;28;20025;-72
2021/06/29 12:41:06;;;;;;;3.13;0.73;;;20.40;99.90;;;;;;5058211;28;20029;-72
2021/06/29 12:43:38;;;;;;;3.67;1.17;;;20.30;99.90;;;;;;5061590;28;20103;-72
2021/06/29 12:46:21;;;;;;;4.68;1.23;;;20.20;99.90;;;;;;5053346;28;20071;-72
2021/06/29 12:49:17;;;;;;;4.57;1.00;;;20.40;99.90;;;;;;5064505;28;20495;-72
2021/06/29 12:51:47;;;;;;;3.35;0.77;;;20.50;99.90;;;;;;5052096;28;20021;-72
2021/06/29 12:54:18;;;;;;;3.30;0.55;;;20.70;99.90;;;;;;5063474;28;20554;-72
2021/06/29 12:56:45;;;;;;;2.17;0.60;;;20.80;99.90;;;;;;5051875;28;20032;-72
2021/06/29 12:59:12;;;;;;;2.75;0.68;;;20.80;99.90;;;;;;5065297;28;20029;-72
2021/06/29 13:01:44;;;;;;;5.13;0.93;;;20.80;99.90;;;;;;5061424;28;20038;-72
2021/06/29 13:04:14;;;;;;;2.30;0.90;;;21.00;99.90;;;;;;5065680;28;20032;-72
2021/06/29 13:06:45;;;;;;;2.90;0.70;;;21.30;99.90;;;;;;5062211;28;20013;-72